Time;durP1;ratioP1;P1;durP2;ratioP2;P2;SDS_P1;SDS_P2;PMS_P1;PMS_P2;Temp;Humidity;BMP_temperature;BMP_pressure;BME280_temperature;BME280_humidity;BME280_pressure;Samples;Min_cycle;Max_cycle;Signal;HPM_P1;HPM_P2
2022/02/28 00:01:55;;;;;;;4.50;2.90;;;;;;;9.01;56.24;102127.06;5046813;27;104323;-54
2022/02/28 00:04:21;;;;;;;4.43;2.60;;;;;;;9.01;56.17;102121.63;5053338;27;102346;-54
2022/02/28 00:06:47;;;;;;;3.55;2.40;;;;;;;9.01;56.68;102126.25;5048393;27;102218;-54
2022/02/28 00:09:14;;;;;;;3.95;2.63;;;;;;;9.00;56.22;102119.16;5031717;27;102463;-54
2022/02/28 00:11:43;;;;;;;4.13;2.40;;;;;;;9.00;56.29;102113.72;5035099;27;103900;-54
2022/02/28 00:14:12;;;;;;;3.20;2.35;;;;;;;8.99;56.57;102115.63;5045149;27;102063;-54
2022/02/28 00:16:39;;;;;;;2.83;2.05;;;;;;;9.00;56.55;102121.88;5042605;27;102457;-54
2022/02/28 00:19:07;;;;;;;3.60;2.45;;;;;;;9.01;56.43;102104.53;5051383;27;102302;-54
2022/02/28 00:21:42;;;;;;;4.70;2.60;;;;;;;9.01;56.76;102101.81;5049030;27;108010;-54
2022/02/28 00:24:09;;;;;;;3.92;2.60;;;;;;;9.02;56.59;102089.91;5036502;27;102523;-54
2022/02/28 00:26:35;;;;;;;3.67;2.50;;;;;;;9.02;56.99;102095.34;5034468;27;102400;-54
2022/02/28 00:29:03;;;;;;;3.90;2.45;;;;;;;9.02;56.77;102087.19;5047149;27;103072;-54
2022/02/28 00:31:29;;;;;;;4.05;2.40;;;;;;;9.02;57.09;102088.03;5045151;27;103913;-54
2022/02/28 00:34:17;;;;;;;4.45;2.22;;;;;;;9.03;56.25;102080.69;5012550;27;102145;-54
2022/02/28 00:36:44;;;;;;;4.05;2.35;;;;;;;9.03;56.95;102077.97;5025769;27;102149;-54
2022/02/28 00:39:10;;;;;;;3.03;2.10;;;;;;;9.03;57.13;102075.25;5049429;27;102794;-54
2022/02/28 00:41:36;;;;;;;2.83;2.03;;;;;;;9.02;56.96;102066.28;5047249;27;104345;-54
2022/02/28 00:44:03;;;;;;;3.75;2.33;;;;;;;9.03;57.08;102072.56;5054376;27;102189;-54
2022/02/28 00:46:29;;;;;;;3.42;2.25;;;;;;;9.03;56.64;102073.38;5042190;27;106385;-54
2022/02/28 00:48:56;;;;;;;3.60;2.10;;;;;;;9.03;56.42;102072.56;5035065;27;102671;-54
2022/02/28 00:51:23;;;;;;;3.85;2.47;;;;;;;9.03;56.45;102069.84;5032961;27;104142;-54
2022/02/28 00:53:50;;;;;;;3.65;2.55;;;;;;;9.03;56.59;102059.78;5028885;27;102463;-54
2022/02/28 00:56:16;;;;;;;3.08;2.22;;;;;;;9.04;56.66;102061.44;5039363;27;102374;-54
2022/02/28 00:58:42;;;;;;;3.42;1.98;;;;;;;9.03;56.94;102048.94;5035556;27;103382;-55
2022/02/28 01:01:08;;;;;;;4.00;2.50;;;;;;;9.05;56.79;102046.84;5036626;27;103725;-54
2022/02/28 01:03:35;;;;;;;3.75;2.30;;;;;;;9.05;56.37;102045.97;5050008;27;102017;-54
2022/02/28 01:06:02;;;;;;;2.65;1.90;;;;;;;9.06;56.83;102044.94;5050694;27;102794;-54
2022/02/28 01:08:29;;;;;;;3.05;2.33;;;;;;;9.05;56.57;102035.13;5060005;27;102578;-54
2022/02/28 01:10:56;;;;;;;3.65;2.28;;;;;;;9.04;57.22;102031.56;5043931;27;103822;-54
2022/02/28 01:13:23;;;;;;;4.43;1.80;;;;;;;9.04;56.99;102028.03;5050828;27;102389;-54
2022/02/28 01:15:49;;;;;;;2.75;1.98;;;;;;;9.05;56.81;102029.69;5050402;27;102331;-54
2022/02/28 01:18:16;;;;;;;3.40;2.22;;;;;;;9.04;57.37;102026.16;5060186;27;102593;-54
2022/02/28 01:20:44;;;;;;;3.55;2.15;;;;;;;9.05;57.35;102024.25;5045857;27;104054;-54
2022/02/28 01:23:11;;;;;;;4.25;2.42;;;;;;;9.05;56.99;102027.81;5032053;27;103011;-54
2022/02/28 01:25:38;;;;;;;3.25;1.85;;;;;;;9.05;57.22;102027.81;5041511;27;102349;-54
2022/02/28 01:28:04;;;;;;;3.83;2.10;;;;;;;9.05;56.88;102029.69;5031656;27;102656;-54
2022/02/28 01:30:31;;;;;;;2.65;2.10;;;;;;;9.05;56.57;102021.53;5029675;27;103876;-54
2022/02/28 01:32:57;;;;;;;2.45;2.08;;;;;;;9.05;56.54;102021.53;5030953;27;102264;-54
2022/02/28 01:35:23;;;;;;;3.58;2.35;;;;;;;9.03;56.68;102016.34;5036939;27;102399;-54
2022/02/28 01:37:50;;;;;;;2.55;2.15;;;;;;;9.03;57.06;102026.38;5033337;27;102486;-54
2022/02/28 01:40:16;;;;;;;3.92;2.20;;;;;;;9.04;57.36;102017.19;5030371;27;103989;-54
2022/02/28 01:42:50;;;;;;;4.30;2.40;;;;;;;9.03;56.66;102020.97;5029430;27;102301;-54
2022/02/28 01:45:22;;;;;;;3.05;1.92;;;;;;;9.03;57.09;102010.09;5024409;27;103550;-54
2022/02/28 01:47:49;;;;;;;2.97;2.20;;;;;;;9.02;57.46;102014.69;5031088;27;102671;-54
2022/02/28 01:50:16;;;;;;;3.13;2.00;;;;;;;9.03;57.57;102010.09;5017442;27;105053;-54
2022/02/28 01:52:44;;;;;;;3.95;2.50;;;;;;;9.01;57.30;102010.31;5033412;27;102072;-54
2022/02/28 01:55:11;;;;;;;3.67;2.40;;;;;;;9.02;57.45;102003.00;5043167;27;102402;-54
2022/02/28 01:57:38;;;;;;;4.43;2.35;;;;;;;9.03;57.40;102010.09;5046241;27;102178;-54
2022/02/28 02:00:08;;;;;;;3.25;2.40;;;;;;;9.01;56.90;102001.34;5049693;27;104119;-54
2022/02/28 02:02:37;;;;;;;4.20;2.42;;;;;;;9.00;56.93;102003.22;5038880;27;102602;-54
2022/02/28 02:05:03;;;;;;;2.78;2.08;;;;;;;9.01;57.08;102001.34;5030902;27;102527;-54
2022/02/28 02:07:31;;;;;;;3.23;2.03;;;;;;;9.01;56.73;101990.47;5034520;27;102787;-54
2022/02/28 02:09:58;;;;;;;3.22;2.30;;;;;;;9.00;57.13;101994.25;5034093;27;104291;-54
2022/02/28 02:12:26;;;;;;;4.97;2.50;;;;;;;9.01;56.59;101998.63;5052168;27;102290;-54
2022/02/28 02:14:53;;;;;;;3.95;2.05;;;;;;;9.00;57.12;101986.94;5045678;27;102250;-54
2022/02/28 02:17:21;;;;;;;3.72;2.30;;;;;;;9.00;57.29;101994.25;5053775;27;102472;-54
2022/02/28 02:19:52;;;;;;;3.92;2.72;;;;;;;8.99;56.72;101982.56;5027787;27;103482;-54
2022/02/28 02:22:20;;;;;;;4.60;2.72;;;;;;;9.00;56.74;101988.81;5026971;27;102146;-55
2022/02/28 02:24:47;;;;;;;3.47;2.20;;;;;;;9.00;57.52;101988.81;5033754;27;102084;-54
2022/02/28 02:27:13;;;;;;;3.70;2.20;;;;;;;8.99;57.09;101988.00;5037959;27;102222;-55
2022/02/28 02:29:40;;;;;;;2.72;2.25;;;;;;;8.99;57.07;101984.47;5048365;27;103862;-54
2022/02/28 02:32:07;;;;;;;3.63;2.20;;;;;;;8.98;57.62;101989.06;5059032;27;102225;-54
2022/02/28 02:34:34;;;;;;;5.03;2.72;;;;;;;8.97;57.60;101984.66;5051310;27;102424;-54
2022/02/28 02:37:00;;;;;;;3.05;2.55;;;;;;;8.98;56.98;101990.94;5050465;27;102414;-54
2022/02/28 02:39:28;;;;;;;4.90;2.30;;;;;;;8.98;57.66;101988.22;5028110;28;103600;-54
2022/02/28 02:41:54;;;;;;;4.75;2.90;;;;;;;8.96;57.06;101987.63;5030033;27;102757;-54
2022/02/28 02:44:20;;;;;;;5.32;2.60;;;;;;;8.96;56.81;101980.31;5029573;27;103806;-54
2022/02/28 02:46:48;;;;;;;5.07;2.70;;;;;;;8.97;57.28;101986.56;5033783;27;102281;-54
2022/02/28 02:49:14;;;;;;;3.78;2.47;;;;;;;8.95;57.17;101989.53;5048593;27;103900;-54
2022/02/28 02:51:41;;;;;;;4.35;2.95;;;;;;;8.95;57.07;101975.13;5048154;27;102243;-54
2022/02/28 02:54:08;;;;;;;4.43;2.88;;;;;;;8.94;56.91;101979.69;5059650;27;102294;-54
2022/02/28 02:56:36;;;;;;;4.03;2.90;;;;;;;8.94;56.85;101979.69;5055397;27;102547;-54
2022/02/28 02:59:03;;;;;;;3.97;3.22;;;;;;;8.94;56.66;101978.88;5049411;27;104083;-54
2022/02/28 03:01:29;;;;;;;5.32;3.00;;;;;;;8.93;57.53;101971.78;5049055;27;102406;-54
2022/02/28 03:03:57;;;;;;;5.05;2.85;;;;;;;8.93;56.66;101971.78;5046446;27;102274;-54
2022/02/28 03:06:23;;;;;;;4.43;3.13;;;;;;;8.90;57.34;101968.47;5049713;27;102110;-53
2022/02/28 03:08:50;;;;;;;4.90;3.15;;;;;;;8.93;57.13;101971.78;5053790;27;104020;-54
2022/02/28 03:11:16;;;;;;;5.00;3.55;;;;;;;8.91;57.05;101969.31;5050357;27;102796;-54
2022/02/28 03:13:44;;;;;;;4.25;3.08;;;;;;;8.90;57.07;101979.31;5048832;27;102205;-54
2022/02/28 03:16:11;;;;;;;4.47;3.05;;;;;;;8.89;57.17;101969.53;5035911;27;102124;-54
2022/02/28 03:18:37;;;;;;;4.65;3.20;;;;;;;8.89;57.64;101982.28;5042929;27;103651;-54
2022/02/28 03:21:04;;;;;;;5.40;3.55;;;;;;;8.88;56.82;101976.03;5037075;27;102161;-54
2022/02/28 03:23:33;;;;;;;4.20;3.10;;;;;;;8.86;57.32;101972.69;5037988;27;102832;-53
2022/02/28 03:25:59;;;;;;;4.70;3.30;;;;;;;8.87;56.62;101985.25;5029192;27;102080;-54
2022/02/28 03:28:26;;;;;;;4.50;3.00;;;;;;;8.86;56.54;101980.84;5035507;27;104045;-54
2022/02/28 03:30:54;;;;;;;4.07;3.00;;;;;;;8.86;56.46;101983.56;5029116;27;102693;-54
2022/02/28 03:33:20;;;;;;;4.15;3.58;;;;;;;8.84;56.94;101974.84;5037654;27;102726;-54
2022/02/28 03:35:46;;;;;;;5.93;3.72;;;;;;;8.83;57.07;101978.59;5037386;27;102798;-54
2022/02/28 03:38:13;;;;;;;5.85;3.85;;;;;;;8.83;56.61;101984.00;5056251;27;102912;-54
2022/02/28 03:40:39;;;;;;;5.55;3.15;;;;;;;8.81;56.94;101979.91;5048403;27;101983;-53
2022/02/28 03:43:09;;;;;;;5.32;3.05;;;;;;;8.80;56.55;101979.06;5050111;27;102827;-53
2022/02/28 03:45:35;;;;;;;6.55;3.25;;;;;;;8.80;57.20;101976.34;5058490;27;102135;-53
2022/02/28 03:48:04;;;;;;;5.95;3.78;;;;;;;8.80;56.73;101979.06;5037893;27;103887;-54
2022/02/28 03:50:30;;;;;;;5.80;3.40;;;;;;;8.79;56.65;101974.69;5038428;27;102689;-54
2022/02/28 03:52:56;;;;;;;4.35;3.40;;;;;;;8.78;56.99;101973.03;5029280;27;102799;-54
2022/02/28 03:55:23;;;;;;;6.63;3.75;;;;;;;8.78;56.26;101974.91;5029710;27;102479;-54
2022/02/28 03:57:49;;;;;;;4.95;4.05;;;;;;;8.78;57.00;101974.91;5039730;27;103919;-54
2022/02/28 04:00:16;;;;;;;5.97;4.30;;;;;;;8.78;56.41;101973.03;5055925;27;102883;-54
2022/02/28 04:02:43;;;;;;;5.38;3.88;;;;;;;8.77;56.61;101962.41;5037038;27;102549;-53
2022/02/28 04:05:11;;;;;;;5.88;3.45;;;;;;;8.76;56.23;101972.41;5029142;27;102302;-54
2022/02/28 04:07:38;;;;;;;5.63;4.00;;;;;;;8.74;56.41;101963.69;5038315;27;103632;-54
2022/02/28 04:10:06;;;;;;;7.25;3.90;;;;;;;8.74;56.09;101969.13;5048244;27;102195;-54
2022/02/28 04:12:43;;;;;;;7.17;4.10;;;;;;;8.73;57.04;101962.03;5049959;27;102627;-54
2022/02/28 04:15:09;;;;;;;4.43;3.45;;;;;;;8.74;56.93;101969.13;5060160;27;102785;-54
2022/02/28 04:17:36;;;;;;;6.78;3.72;;;;;;;8.73;56.26;101972.91;5037549;27;103998;-54
2022/02/28 04:20:04;;;;;;;5.40;3.92;;;;;;;8.73;56.36;101978.31;5033813;27;102444;-54
2022/02/28 04:22:31;;;;;;;5.05;3.70;;;;;;;8.72;56.38;101976.66;5042666;27;102488;-54
2022/02/28 04:24:58;;;;;;;5.63;3.63;;;;;;;8.70;56.52;101978.78;5030708;27;102594;-54
2022/02/28 04:27:24;;;;;;;5.78;3.80;;;;;;;8.70;56.29;101973.34;5030565;27;103399;-54
2022/02/28 04:29:50;;;;;;;6.38;3.90;;;;;;;8.68;56.21;101975.44;5052648;27;102374;-54
2022/02/28 04:32:16;;;;;;;5.90;4.30;;;;;;;8.69;55.70;101974.41;5048184;27;101994;-54
2022/02/28 04:34:43;;;;;;;5.07;3.75;;;;;;;8.69;56.79;101982.56;5049580;27;102653;-54
2022/02/28 04:37:09;;;;;;;4.68;3.58;;;;;;;8.68;56.05;101975.44;5050697;27;104080;-54
2022/02/28 04:39:36;;;;;;;4.82;3.58;;;;;;;8.69;56.60;101978.97;5036503;27;102225;-54
2022/02/28 04:42:03;;;;;;;5.13;3.47;;;;;;;8.68;56.79;101980.88;5031456;27;102296;-54
2022/02/28 04:44:32;;;;;;;5.68;3.47;;;;;;;8.69;55.86;101985.28;5032207;27;102331;-54
2022/02/28 04:46:58;;;;;;;6.72;3.70;;;;;;;8.68;56.77;101985.47;5047584;27;104036;-54
2022/02/28 04:49:24;;;;;;;5.88;3.58;;;;;;;8.68;56.77;101989.03;5034806;27;102492;-54
2022/02/28 04:51:50;;;;;;;5.75;3.70;;;;;;;8.67;56.61;101995.50;5047223;27;102310;-54
2022/02/28 04:54:16;;;;;;;4.88;3.30;;;;;;;8.66;55.92;101988.44;5060181;27;102291;-53
2022/02/28 04:56:45;;;;;;;4.75;3.63;;;;;;;8.65;56.68;101986.75;5047362;27;103833;-54
2022/02/28 04:59:12;;;;;;;5.85;4.05;;;;;;;8.65;56.23;101986.75;5051763;27;102137;-54
2022/02/28 05:01:38;;;;;;;5.82;3.95;;;;;;;8.64;56.04;101980.50;5032581;27;102589;-54
2022/02/28 05:04:05;;;;;;;3.75;3.20;;;;;;;8.64;56.44;101985.94;5051292;27;103116;-54
2022/02/28 05:06:31;;;;;;;4.43;3.20;;;;;;;8.63;56.25;101986.16;5032719;27;103773;-54
2022/02/28 05:08:57;;;;;;;4.20;3.47;;;;;;;8.62;56.17;101989.94;5058264;27;102840;-54
2022/02/28 05:11:24;;;;;;;5.50;3.90;;;;;;;8.62;56.50;101988.06;5052698;27;103410;-54
2022/02/28 05:13:51;;;;;;;6.28;4.05;;;;;;;8.62;55.82;102000.81;5054120;27;102076;-54
2022/02/28 05:16:18;;;;;;;7.07;4.00;;;;;;;8.62;56.41;101998.91;5055162;27;103891;-54
2022/02/28 05:18:44;;;;;;;5.90;3.70;;;;;;;8.62;56.25;101995.38;5052845;27;102474;-54
2022/02/28 05:21:10;;;;;;;7.00;4.25;;;;;;;8.62;56.85;101995.38;5059399;27;102143;-54
2022/02/28 05:23:37;;;;;;;6.32;4.15;;;;;;;8.62;56.81;102006.22;5055964;27;102722;-54
2022/02/28 05:26:03;;;;;;;6.88;4.18;;;;;;;8.61;56.68;102013.50;5043217;27;108256;-54
2022/02/28 05:28:29;;;;;;;6.13;3.70;;;;;;;8.61;56.06;102020.84;5025711;27;102110;-54
2022/02/28 05:30:57;;;;;;;6.05;4.10;;;;;;;8.61;56.34;102018.13;5031272;27;102448;-54
2022/02/28 05:33:23;;;;;;;5.35;4.03;;;;;;;8.62;56.30;102030.66;5032550;27;102267;-54
2022/02/28 05:35:49;;;;;;;6.50;3.70;;;;;;;8.61;56.83;102023.53;5051975;27;103897;-54
2022/02/28 05:38:15;;;;;;;4.90;3.70;;;;;;;8.61;56.90;102034.41;5058768;27;102579;-54
2022/02/28 05:40:42;;;;;;;7.47;4.43;;;;;;;8.59;56.63;102036.53;5048398;27;103040;-54
2022/02/28 05:43:09;;;;;;;5.63;4.07;;;;;;;8.60;56.66;102032.75;5032700;27;102882;-54
2022/02/28 05:45:37;;;;;;;4.50;3.90;;;;;;;8.59;56.14;102040.06;5051419;27;103841;-54
2022/02/28 05:48:09;;;;;;;5.63;3.75;;;;;;;8.59;56.92;102041.97;5050357;27;102236;-54
2022/02/28 05:50:36;;;;;;;6.43;4.10;;;;;;;8.58;56.45;102038.41;5049195;27;102300;-54
2022/02/28 05:53:02;;;;;;;6.85;4.38;;;;;;;8.58;56.63;102048.41;5045346;27;102605;-54
2022/02/28 05:55:29;;;;;;;7.88;4.30;;;;;;;8.58;56.44;102045.69;5049950;27;103446;-54
2022/02/28 05:57:55;;;;;;;5.28;4.28;;;;;;;8.57;56.14;102041.34;5051261;27;102370;-54
2022/02/28 06:00:22;;;;;;;6.35;4.22;;;;;;;8.57;56.35;102054.91;5059330;27;102279;-53
2022/02/28 06:02:51;;;;;;;6.20;4.28;;;;;;;8.55;56.66;102047.00;5051578;27;102804;-54
2022/02/28 06:05:19;;;;;;;6.97;4.80;;;;;;;8.54;56.16;102039.91;5048446;27;103379;-54
2022/02/28 06:07:46;;;;;;;7.28;4.50;;;;;;;8.54;56.03;102044.50;5051186;27;102519;-54
2022/02/28 06:10:12;;;;;;;6.45;4.93;;;;;;;8.54;56.10;102044.50;5055328;27;102270;-54
2022/02/28 06:12:39;;;;;;;7.43;4.80;;;;;;;8.52;56.81;102041.19;5058792;27;102580;-54
2022/02/28 06:15:06;;;;;;;6.75;4.88;;;;;;;8.50;55.77;102037.88;5040652;27;104022;-54
2022/02/28 06:17:32;;;;;;;8.07;4.82;;;;;;;8.50;56.51;102049.53;5029130;27;102330;-54
2022/02/28 06:19:59;;;;;;;7.50;4.97;;;;;;;8.49;56.40;102037.03;5033054;27;102286;-53
2022/02/28 06:22:27;;;;;;;6.03;4.70;;;;;;;8.50;56.41;102049.53;5039244;27;102589;-54
2022/02/28 06:24:53;;;;;;;5.78;4.57;;;;;;;8.50;55.85;102048.72;5041675;27;104031;-54
2022/02/28 06:27:22;;;;;;;5.85;4.85;;;;;;;8.49;56.55;102049.78;5029961;28;102163;-54
2022/02/28 06:29:48;;;;;;;5.70;4.75;;;;;;;8.48;56.00;102040.81;5035453;27;102230;-54
2022/02/28 06:32:14;;;;;;;11.15;6.03;;;;;;;8.48;56.56;102056.28;5049841;27;102399;-54
2022/02/28 06:34:41;;;;;;;7.13;5.43;;;;;;;8.47;56.18;102044.56;5049176;27;103942;-54
2022/02/28 06:37:07;;;;;;;6.90;5.45;;;;;;;8.47;55.63;102049.16;5057309;27;102446;-54
2022/02/28 06:39:35;;;;;;;7.63;5.72;;;;;;;8.47;55.93;102049.16;5057743;27;102607;-54
2022/02/28 06:42:01;;;;;;;6.97;4.97;;;;;;;8.45;55.86;102057.53;5041239;27;102923;-54
2022/02/28 06:44:28;;;;;;;7.25;5.60;;;;;;;8.46;55.65;102039.38;5028796;28;103761;-54
2022/02/28 06:46:54;;;;;;;7.95;5.50;;;;;;;8.46;56.66;102052.94;5038684;27;102415;-53
2022/02/28 06:49:20;;;;;;;7.93;5.30;;;;;;;8.43;55.69;102057.75;5050599;27;102539;-54
2022/02/28 06:51:48;;;;;;;9.32;5.53;;;;;;;8.45;55.40;102056.72;5056944;27;102582;-54
2022/02/28 06:54:15;;;;;;;7.63;5.68;;;;;;;8.42;55.53;102047.97;5049262;27;103737;-54
2022/02/28 06:56:42;;;;;;;10.05;5.40;;;;;;;8.43;56.39;102055.03;5049153;27;102565;-54
2022/02/28 06:59:09;;;;;;;7.10;5.50;;;;;;;8.42;55.62;102056.09;5038134;27;102514;-54
2022/02/28 07:01:36;;;;;;;6.05;5.45;;;;;;;8.42;56.46;102056.09;5040012;27;102170;-54
2022/02/28 07:04:03;;;;;;;10.13;5.18;;;;;;;8.43;55.62;102059.63;5042852;27;104017;-54
2022/02/28 07:06:29;;;;;;;7.85;5.53;;;;;;;8.43;55.79;102059.63;5044822;27;103120;-54
2022/02/28 07:08:57;;;;;;;6.03;5.38;;;;;;;8.42;56.04;102058.81;5056577;27;103471;-54
2022/02/28 07:11:23;;;;;;;6.00;4.75;;;;;;;8.40;56.11;102055.50;5038218;27;102299;-54
2022/02/28 07:13:51;;;;;;;12.15;5.70;;;;;;;8.42;55.32;102064.22;5044343;27;103938;-54
2022/02/28 07:16:20;;;;;;;8.77;5.13;;;;;;;8.40;55.79;102066.34;5042888;27;102420;-54
2022/02/28 07:18:46;;;;;;;6.22;4.90;;;;;;;8.40;55.57;102060.94;5041428;27;102331;-54
2022/02/28 07:21:13;;;;;;;8.02;5.15;;;;;;;8.40;56.07;102066.34;5036928;27;102231;-54
2022/02/28 07:23:39;;;;;;;7.00;4.75;;;;;;;8.41;55.60;102068.00;5026661;27;103721;-54
2022/02/28 07:26:06;;;;;;;6.50;5.18;;;;;;;8.40;56.47;102060.06;5029345;27;102611;-54
2022/02/28 07:28:32;;;;;;;6.45;4.82;;;;;;;8.39;55.57;102064.69;5031820;28;102520;-54
2022/02/28 07:31:00;;;;;;;7.28;5.00;;;;;;;8.39;55.96;102053.81;5032491;27;102809;-54
2022/02/28 07:33:26;;;;;;;8.27;5.22;;;;;;;8.40;55.77;102055.50;5046759;27;103633;-54
2022/02/28 07:35:52;;;;;;;8.30;5.32;;;;;;;8.39;55.50;102061.13;5051858;27;102367;-54
2022/02/28 07:38:19;;;;;;;9.55;5.53;;;;;;;8.39;55.42;102059.25;5059955;27;102393;-54
2022/02/28 07:40:45;;;;;;;7.50;5.03;;;;;;;8.38;55.77;102057.59;5029924;27;102409;-54
2022/02/28 07:43:12;;;;;;;10.02;5.88;;;;;;;8.37;55.29;102055.94;5036392;27;103931;-54
2022/02/28 07:45:38;;;;;;;8.02;5.45;;;;;;;8.37;56.21;102050.53;5034183;27;102761;-54
2022/02/28 07:48:06;;;;;;;9.70;6.30;;;;;;;8.38;56.03;102044.03;5049069;27;102449;-54
2022/02/28 07:50:32;;;;;;;8.15;5.18;;;;;;;8.38;55.97;102046.75;5040802;27;102256;-54
2022/02/28 07:52:59;;;;;;;6.95;5.57;;;;;;;8.38;55.43;102052.19;5028589;27;104151;-54
2022/02/28 07:55:25;;;;;;;8.40;5.15;;;;;;;8.38;55.75;102046.75;5029524;27;102319;-54
2022/02/28 07:57:51;;;;;;;6.95;4.60;;;;;;;8.38;55.52;102045.94;5028230;28;102463;-54
2022/02/28 08:00:17;;;;;;;7.65;4.80;;;;;;;8.38;55.48;102045.94;5046199;27;102460;-54
2022/02/28 08:02:44;;;;;;;7.00;4.97;;;;;;;8.38;55.20;102044.03;5031251;27;104088;-54
2022/02/28 08:05:11;;;;;;;8.05;5.18;;;;;;;8.38;55.65;102044.03;5029111;27;102720;-54
2022/02/28 08:07:39;;;;;;;7.07;4.55;;;;;;;8.38;55.71;102046.75;5036672;27;102100;-54
2022/02/28 08:10:06;;;;;;;7.07;4.80;;;;;;;8.38;56.21;102052.19;5028223;27;102318;-54
2022/02/28 08:12:33;;;;;;;5.47;4.00;;;;;;;8.39;55.96;102050.28;5039291;27;104109;-53
2022/02/28 08:14:59;;;;;;;7.38;4.07;;;;;;;8.38;56.01;102048.63;5011804;27;102661;-54
2022/02/28 08:17:25;;;;;;;6.35;5.00;;;;;;;8.37;55.58;102050.53;5028746;27;102496;-54
2022/02/28 08:19:52;;;;;;;5.07;4.00;;;;;;;8.38;55.06;102048.63;5016164;27;103104;-54
2022/02/28 08:22:19;;;;;;;6.35;4.53;;;;;;;8.37;55.71;102053.25;5033573;27;103876;-54
2022/02/28 08:24:46;;;;;;;6.75;4.40;;;;;;;8.36;55.88;102048.81;5047876;27;102230;-54
2022/02/28 08:27:12;;;;;;;9.68;4.30;;;;;;;8.36;55.15;102054.25;5053275;27;102604;-54
2022/02/28 08:29:38;;;;;;;6.78;5.00;;;;;;;8.36;55.18;102048.00;5049693;27;102670;-54
2022/02/28 08:32:05;;;;;;;6.03;4.47;;;;;;;8.36;55.14;102042.56;5048666;27;102961;-54
2022/02/28 08:34:31;;;;;;;7.63;4.65;;;;;;;8.38;55.76;102035.91;5029860;27;102163;-54
2022/02/28 08:36:57;;;;;;;6.93;4.60;;;;;;;8.38;55.71;102038.63;5054026;27;102503;-54
2022/02/28 08:39:25;;;;;;;6.97;4.15;;;;;;;8.38;55.54;102030.47;5036499;27;102357;-54
2022/02/28 08:41:51;;;;;;;6.50;4.50;;;;;;;8.38;55.95;102041.31;5019783;27;103877;-54
2022/02/28 08:44:17;;;;;;;6.03;4.15;;;;;;;8.37;55.13;102020.69;5028590;27;102823;-54
2022/02/28 08:46:44;;;;;;;5.20;4.50;;;;;;;8.38;55.61;102035.91;5033145;27;102844;-54
2022/02/28 08:49:10;;;;;;;5.72;4.20;;;;;;;8.38;55.61;102025.03;5048563;27;102677;-54
2022/02/28 08:51:38;;;;;;;7.40;4.32;;;;;;;8.37;55.32;102023.41;5047302;27;103911;-53
2022/02/28 08:54:05;;;;;;;6.18;4.32;;;;;;;8.38;55.99;102027.75;5046003;27;102270;-54
2022/02/28 08:56:32;;;;;;;6.35;4.50;;;;;;;8.37;55.84;102017.97;5038520;27;102337;-54
2022/02/28 08:58:58;;;;;;;5.88;4.75;;;;;;;8.39;55.17;102015.03;5043548;27;102226;-54
2022/02/28 09:01:25;;;;;;;6.32;4.40;;;;;;;8.37;54.84;101996.28;5045102;27;103890;-53
2022/02/28 09:03:52;;;;;;;6.15;4.57;;;;;;;8.37;55.81;102001.69;5030853;27;102144;-54
2022/02/28 09:06:19;;;;;;;7.40;4.40;;;;;;;8.37;55.61;102000.84;5056038;27;102188;-54
2022/02/28 09:08:45;;;;;;;6.97;4.63;;;;;;;8.38;55.12;102006.06;5048538;27;102380;-54
2022/02/28 09:11:15;;;;;;;7.00;4.88;;;;;;;8.39;55.29;102010.41;5043091;27;103730;-54
2022/02/28 09:13:43;;;;;;;5.15;4.40;;;;;;;8.39;55.62;102004.16;5029033;27;102379;-54
2022/02/28 09:16:09;;;;;;;6.82;4.60;;;;;;;8.38;55.50;101992.50;5031478;27;102245;-54
2022/02/28 09:18:36;;;;;;;7.40;4.88;;;;;;;8.38;55.71;102000.63;5028306;27;102384;-54
2022/02/28 09:21:02;;;;;;;5.75;4.20;;;;;;;8.37;54.98;101996.28;5034841;27;103981;-54
2022/02/28 09:23:29;;;;;;;6.85;5.00;;;;;;;8.37;55.06;101996.28;5029288;27;102135;-53
2022/02/28 09:25:55;;;;;;;5.40;4.20;;;;;;;8.36;55.58;101989.13;5035764;27;102722;-54
2022/02/28 09:28:23;;;;;;;5.75;4.63;;;;;;;8.36;55.69;101988.31;5032433;27;102193;-54
2022/02/28 09:30:52;;;;;;;5.57;4.28;;;;;;;8.36;55.38;101991.84;5029350;27;103906;-54
2022/02/28 09:33:21;;;;;;;6.10;4.68;;;;;;;8.37;54.96;101973.72;5038218;27;102128;-54
2022/02/28 09:35:48;;;;;;;5.03;4.43;;;;;;;8.34;55.19;101980.41;5031103;27;102317;-54
2022/02/28 09:38:15;;;;;;;6.35;4.90;;;;;;;8.35;55.11;101987.50;5031266;27;102917;-54
2022/02/28 09:40:43;;;;;;;5.32;4.63;;;;;;;8.36;54.95;101982.88;5024024;27;103730;-54
2022/02/28 09:43:11;;;;;;;6.07;4.57;;;;;;;8.35;55.54;101979.34;5028279;27;102076;-54
2022/02/28 09:45:38;;;;;;;6.82;5.00;;;;;;;8.35;55.68;101978.53;5027983;27;102396;-54
2022/02/28 09:48:07;;;;;;;5.07;4.40;;;;;;;8.35;54.28;101968.50;5035192;27;102563;-54
2022/02/28 09:50:33;;;;;;;6.70;4.75;;;;;;;8.35;54.94;101968.50;5035516;27;103929;-54
2022/02/28 09:52:59;;;;;;;7.45;5.15;;;;;;;8.34;55.50;101972.28;5035252;27;102530;-53
2022/02/28 09:55:26;;;;;;;7.03;4.95;;;;;;;8.33;55.36;101962.50;5033304;27;102393;-53
2022/02/28 09:57:52;;;;;;;6.28;5.20;;;;;;;8.33;54.86;101940.78;5036167;27;102964;-54
2022/02/28 10:00:19;;;;;;;6.00;4.90;;;;;;;8.34;54.78;101941.63;5035774;27;103923;-54
2022/02/28 10:02:46;;;;;;;6.28;4.95;;;;;;;8.34;54.30;101947.88;5030266;27;102746;-54
2022/02/28 10:05:14;;;;;;;6.18;4.40;;;;;;;8.35;54.79;101937.84;5028668;27;103662;-54
2022/02/28 10:07:49;;;;;;;6.33;5.10;;;;;;;8.36;55.57;101937.59;5034003;27;102707;-54
2022/02/28 10:10:16;;;;;;;7.47;5.13;;;;;;;8.36;53.95;101934.88;5030674;27;104177;-54
2022/02/28 10:12:49;;;;;;;5.38;4.40;;;;;;;8.36;54.11;101931.34;5036906;27;102773;-54
2022/02/28 10:15:19;;;;;;;5.28;4.50;;;;;;;8.36;55.11;101934.06;5037755;27;102769;-54
2022/02/28 10:17:47;;;;;;;7.38;5.63;;;;;;;8.37;54.48;101920.31;5036062;27;102261;-54
2022/02/28 10:20:20;;;;;;;;;;;;;;;8.36;54.44;101924.03;5029459;27;103689;-54
2022/02/28 10:22:50;;;;;;;9.65;5.80;;;;;;;8.37;54.43;101920.31;5028859;27;102503;-54
2022/02/28 10:25:28;;;;;;;6.97;5.50;;;;;;;8.36;55.15;101917.78;5045458;27;102327;-54
2022/02/28 10:28:15;;;;;;;8.25;5.38;;;;;;;8.37;54.46;101925.75;5057703;27;102413;-54
2022/02/28 10:30:54;;;;;;;10.90;7.05;;;;;;;8.36;55.04;101924.03;5040496;27;107806;-54
2022/02/28 10:33:27;;;;;;;7.22;5.47;;;;;;;8.38;54.89;101927.41;5041201;27;102428;-54
2022/02/28 10:36:00;;;;;;;7.18;5.40;;;;;;;8.38;54.21;101921.97;5029923;27;102830;-54
2022/02/28 10:38:28;;;;;;;6.80;4.93;;;;;;;8.38;54.79;101910.28;5029289;27;102522;-54
2022/02/28 10:40:54;;;;;;;7.05;4.93;;;;;;;8.38;54.10;101913.84;5028924;28;103762;-54
2022/02/28 10:43:27;;;;;;;6.65;4.68;;;;;;;8.38;54.51;101905.69;5030452;27;102505;-54
2022/02/28 10:45:53;;;;;;;8.05;4.82;;;;;;;8.39;54.47;101911.94;5038959;27;102171;-55
2022/02/28 10:48:20;;;;;;;6.40;4.72;;;;;;;8.38;53.98;101921.97;5031679;27;103543;-54
2022/02/28 10:50:46;;;;;;;5.75;4.32;;;;;;;8.38;53.85;101911.13;5029105;27;104128;-54
2022/02/28 10:53:15;;;;;;;4.35;3.95;;;;;;;8.38;54.83;101908.41;5028613;27;102274;-54
2022/02/28 10:55:42;;;;;;;;;;;;;;;8.38;54.74;101905.69;5037496;27;101950;-53
2022/02/28 10:58:10;;;;;;;5.78;4.55;;;;;;;8.37;54.58;101912.19;5041087;27;102637;-54
2022/02/28 11:00:56;;;;;;;5.38;4.20;;;;;;;8.37;55.12;101893.19;5036036;27;103705;-53
2022/02/28 11:03:24;;;;;;;6.45;4.43;;;;;;;8.38;54.56;101888.59;5054288;27;102146;-54
2022/02/28 11:05:52;;;;;;;8.98;4.90;;;;;;;8.39;54.14;101884.81;5051297;27;102279;-54
2022/02/28 11:08:20;;;;;;;5.63;4.37;;;;;;;8.39;54.92;101890.25;5059362;27;102158;-54
2022/02/28 11:10:48;;;;;;;4.70;3.92;;;;;;;8.39;54.99;101882.94;5034928;27;103935;-54
2022/02/28 11:13:14;;;;;;;5.18;4.03;;;;;;;8.38;54.47;101878.56;5028404;27;102256;-54
2022/02/28 11:15:41;;;;;;;6.50;4.22;;;;;;;8.39;54.01;101880.22;5033804;27;105430;-54
2022/02/28 11:18:10;;;;;;;5.57;4.25;;;;;;;8.39;54.46;101874.78;5029485;27;103078;-54
2022/02/28 11:20:37;;;;;;;6.85;4.32;;;;;;;8.39;54.42;101874.78;5033512;27;104156;-54
2022/02/28 11:23:04;;;;;;;6.55;4.40;;;;;;;8.39;55.02;101868.53;5046720;27;102264;-54
2022/02/28 11:25:32;;;;;;;8.23;4.95;;;;;;;8.40;54.15;101870.19;5060855;27;102419;-54
2022/02/28 11:28:00;;;;;;;6.32;4.43;;;;;;;8.39;54.28;101858.50;5059005;27;102853;-53